Capitan FAP Jose A Quinones Gonzales International Airport
SPHI : now visible

Airfield :











YOU CAN JOIN US ON...

 
LOGIN :

Register | Disclaimer

   EN    FR    IT 

 









Legend :    VFR   Marginal VFR   IFR   Intensive IFR   Very Intensive IFR
Visi :
Ceiling :
>= 8 km
>= 3000ft
5 to 8 km
1000 to 3000 ft
1500m to 5 km
500 to 1000 ft
800 to 1500m
200 to 500 ft
< 800m
< 200 ft
Symbols :   Thunderstorms  Fog  Heavy snow  Heavy precipitations  Wind > 20 kt






- Airport Elevation : 97 ft
- IATA code : CIX


SPHI - Capitan FAP Jose A Quinones Gonzales International

CURRENT METAR :
  • 041400Z 18012KT CAVOK 21/16 Q1013 RMK BIRD HAZARD RWY 19/01 PP000

EXPIRED METARs :
  • 041300Z 19010KT CAVOK 20/16 Q1013 RMK BIRD HAZARD RWY 19/01 PP000
  • 041200Z 18009KT 9999 FEW015 BKN120 19/16 Q1013 RMK BIRD HAZARD RWY 19/01 TN17.8 PP000

TAF SPHI
Valid from the 04 at 12:00 until the 05 at 12:00 UTC


041030Z 0412/0512 19006KT CAVOK TX25/0419Z TN18/0511Z
TEMPO 0412/0415 8000 SCT012 BKNO50
BECMG 0417/0418 18018KT
SPIM FIR / South America



MET'MAP, your aeronautical weather chart ! - Copyright ORBIFLY December 2007 - Disclaimer

ORBIFLY MET'MAP TEAM :

Programming & Development : Alexandra Zaïnal
Concept & original design : Baudouin d'Aumeries
Assistance for programming : Marc-Olivier Méhu
Technical & hardware support : Manuel Goepfert

Contact : metmap@orbifly.com




SOURCES & CREDITS :

   NOAA       Earth
Advisory